Charlottetown, Prince Edward Island

8:29 PM ADT on September 26, 2016 (GMT -0300)
Charlottetown | | Change Station

Elev 157 ft 46.29 °N, 63.13 °W | Updated 29 minutes ago

Partly Cloudy
Partly Cloudy
48 °F
Feels Like 48 °F
N
4
Wind Variable Wind from WSW

Today
High -- | Low -- °F
--% Chance of Precip.
Yesterday
High -- | Low -- °F
Precip. -- in
Pressure 29.97 in
Visibility 15.0 miles
Clouds Few 4000 ft
Few 24000 ft
Dew Point 41 °F
Humidity 76%
Rainfall 0.00 in
Snow Depth Not available.
7:05 AM 7:01 PM
Waning Crescent, 15% visible
METAR CYYG 262300Z 25003KT 15SM FEW040 FEW240 09/05 A2996 RMK SC1CI1 SLP148
Pressure 29.97 in
Visibility 15.0 miles
Clouds Few 4000 ft
Few 24000 ft
Dew Point 41 °F
Humidity 76%
Rainfall 0.00 in
Snow Depth Not available.
7:05 AM 7:01 PM
Waning Crescent, 15% visible
METAR CYYG 262300Z 25003KT 15SM FEW040 FEW240 09/05 A2996 RMK SC1CI1 SLP148

10-Day Weather Forecast

No radar image for this location.
×

Almanac

Astronomy

Sep. 26, 2016 Rise Set
Actual Time
Civil Twilight
Nautical Twilight
Astronomical Twilight
Moon
Length of Visible Light
Length of Day
Tomorrow will be .
, % of the Moon is Illuminated

Today's Extremes

Country Highs Country Lows

Community

WunderPhotos

Upload Photos

1,941,987 photos uploaded!

WunderBlog® & News

Nearby

Air Quality

  Air Quality AQ Index Pollutant
Not available.

Snow Depth

Station Depth Elevation

Earthquake Activity

City Distance Mag. Time & Date
Minimum magnitude displayed is 2.5.

Coastal Water Temperatures

Place Temperature

Stations

Nearby Weather Stations

Station Location Temp. Windchill Dew Point Humidity Wind Precip. Elev Updated Type
                   

Watches & Warnings

There are currently no watches in effect.